Time;durP1;ratioP1;P1;durP2;ratioP2;P2;SDS_P1;SDS_P2;PMS_P1;PMS_P2;Temp;Humidity;BMP_temperature;BMP_pressure;BME280_temperature;BME280_humidity;BME280_pressure;Samples;Min_cycle;Max_cycle;Signal;HPM_P1;HPM_P2
2021/11/23 00:00:00;;;;;;;1.00;1.00;;;-3.30;99.90;;;;;;5093772;28;20031;-67
2021/11/23 00:02:26;;;;;;;1.83;1.10;;;-3.30;99.90;;;;;;5108246;28;20020;-67
2021/11/23 00:04:52;;;;;;;1.00;1.00;;;-3.20;99.90;;;;;;5093852;28;20031;-68
2021/11/23 00:07:18;;;;;;;1.05;0.85;;;-3.20;99.90;;;;;;5109849;28;20051;-67
2021/11/23 00:09:44;;;;;;;1.00;1.00;;;-3.10;99.90;;;;;;5114051;28;20054;-68
2021/11/23 00:12:09;;;;;;;1.20;1.10;;;-3.10;99.90;;;;;;5113675;27;20499;-67
2021/11/23 00:14:35;;;;;;;1.00;1.00;;;-3.10;99.90;;;;;;5113856;28;20051;-67
2021/11/23 00:17:01;;;;;;;0.90;0.90;;;-3.10;99.90;;;;;;5113761;28;20110;-66
2021/11/23 00:19:27;;;;;;;3.20;1.13;;;-3.10;99.90;;;;;;5113576;28;20065;-67
2021/11/23 00:21:52;;;;;;;1.13;1.10;;;-3.10;99.90;;;;;;5113971;28;20483;-67
2021/11/23 00:24:18;;;;;;;1.20;1.10;;;-3.10;99.90;;;;;;5113044;28;20059;-66
2021/11/23 00:26:44;;;;;;;0.90;0.90;;;-3.10;99.90;;;;;;5113790;28;20070;-67
2021/11/23 00:29:09;;;;;;;1.00;1.00;;;-3.10;99.90;;;;;;5113334;28;20024;-67
2021/11/23 00:31:35;;;;;;;1.20;1.10;;;-3.10;99.90;;;;;;5113618;28;20015;-67
2021/11/23 00:34:01;;;;;;;0.98;0.98;;;-3.10;99.90;;;;;;5113485;28;20407;-67
2021/11/23 00:36:27;;;;;;;1.23;1.13;;;-3.10;99.90;;;;;;5113356;28;20020;-67
2021/11/23 00:38:53;;;;;;;1.10;1.00;;;-3.10;99.90;;;;;;5113708;28;20118;-66
2021/11/23 00:41:19;;;;;;;1.20;1.10;;;-3.20;99.90;;;;;;5113233;28;20016;-67
2021/11/23 00:43:46;;;;;;;1.20;1.10;;;-3.20;99.90;;;;;;5103298;28;20024;-66
2021/11/23 00:46:12;;;;;;;1.30;1.10;;;-3.20;99.90;;;;;;5094568;28;20024;-66
2021/11/23 00:48:38;;;;;;;0.93;0.90;;;-3.20;99.90;;;;;;5112915;28;20391;-66
2021/11/23 00:51:06;;;;;;;0.95;0.95;;;-3.20;99.90;;;;;;5112989;28;20114;-66
2021/11/23 00:53:35;;;;;;;0.90;0.90;;;-3.20;99.90;;;;;;5110467;28;20023;-65
2021/11/23 00:56:03;;;;;;;1.33;1.20;;;-3.20;99.90;;;;;;5101192;28;20040;-66
2021/11/23 00:58:29;;;;;;;1.05;1.00;;;-3.20;99.90;;;;;;5112978;28;20020;-66
2021/11/23 01:00:54;;;;;;;1.50;1.13;;;-3.10;99.90;;;;;;5106080;28;20027;-65
2021/11/23 01:03:20;;;;;;;1.42;1.00;;;-3.10;99.90;;;;;;5092573;28;20039;-66
2021/11/23 01:05:46;;;;;;;1.23;1.13;;;-3.10;99.90;;;;;;5097384;28;20015;-66
2021/11/23 01:08:14;;;;;;;1.20;0.98;;;-3.10;99.90;;;;;;5112860;28;20118;-65
2021/11/23 01:10:40;;;;;;;0.93;0.93;;;-3.10;99.90;;;;;;5112811;28;20011;-65
2021/11/23 01:13:06;;;;;;;1.00;1.00;;;-3.20;99.90;;;;;;5112741;28;20510;-65
2021/11/23 01:15:32;;;;;;;1.38;1.15;;;-3.20;99.90;;;;;;5112365;28;20058;-66
2021/11/23 01:17:58;;;;;;;1.17;1.08;;;-3.20;99.90;;;;;;5112599;28;20114;-66
2021/11/23 01:20:23;;;;;;;1.08;1.08;;;-3.20;99.90;;;;;;5112631;28;20031;-65
2021/11/23 01:22:50;;;;;;;0.80;0.80;;;-3.20;99.90;;;;;;5112654;28;20023;-65
2021/11/23 01:25:15;;;;;;;0.90;0.90;;;-3.20;99.90;;;;;;5112414;28;20506;-65
2021/11/23 01:27:41;;;;;;;0.90;0.90;;;-3.30;99.90;;;;;;5112209;28;20070;-65
2021/11/23 01:30:09;;;;;;;1.05;0.88;;;-3.30;99.90;;;;;;5112275;28;20055;-65
2021/11/23 01:32:35;;;;;;;1.00;1.00;;;-3.30;99.90;;;;;;5112260;28;20023;-65
2021/11/23 01:35:01;;;;;;;0.90;0.90;;;-3.30;99.90;;;;;;5111882;28;20099;-65
2021/11/23 01:37:27;;;;;;;0.95;0.90;;;-3.30;99.90;;;;;;5112354;28;20051;-65
2021/11/23 01:39:53;;;;;;;0.82;0.82;;;-3.30;99.90;;;;;;5110630;28;20520;-66
2021/11/23 01:42:19;;;;;;;0.80;0.80;;;-3.40;99.90;;;;;;5111994;28;20027;-66
2021/11/23 01:44:44;;;;;;;0.70;0.70;;;-3.40;99.90;;;;;;5112013;28;20095;-66
2021/11/23 01:47:10;;;;;;;0.75;0.75;;;-3.40;99.90;;;;;;5112345;28;20433;-66
2021/11/23 01:49:36;;;;;;;0.80;0.80;;;-3.50;99.90;;;;;;5111867;28;20052;-66
2021/11/23 01:52:02;;;;;;;0.80;0.80;;;-3.50;99.90;;;;;;5108185;28;20016;-66
2021/11/23 01:54:28;;;;;;;0.85;0.85;;;-3.50;99.90;;;;;;5091546;28;20036;-66
2021/11/23 01:56:55;;;;;;;0.80;0.80;;;-3.50;99.90;;;;;;5107681;28;20043;-66
2021/11/23 01:59:21;;;;;;;0.70;0.70;;;-3.50;99.90;;;;;;5111889;28;20023;-66
2021/11/23 02:01:47;;;;;;;0.75;0.75;;;-3.50;99.90;;;;;;5111940;28;20364;-66
2021/11/23 02:04:13;;;;;;;0.70;0.70;;;-3.50;99.90;;;;;;5112207;28;20394;-66
2021/11/23 02:06:39;;;;;;;0.80;0.80;;;-3.50;99.90;;;;;;5111934;28;20126;-66
2021/11/23 02:09:05;;;;;;;0.80;0.80;;;-3.50;99.90;;;;;;5112065;28;20026;-66
2021/11/23 02:11:31;;;;;;;0.82;0.82;;;-3.50;99.90;;;;;;5111756;28;20416;-66
2021/11/23 02:13:58;;;;;;;3.80;0.90;;;-3.50;99.90;;;;;;5111868;28;20027;-66
2021/11/23 02:16:23;;;;;;;0.70;0.70;;;-3.50;99.90;;;;;;5111586;28;20028;-66
2021/11/23 02:18:51;;;;;;;0.90;0.90;;;-3.50;99.90;;;;;;5111322;28;20436;-66
2021/11/23 02:21:17;;;;;;;0.80;0.80;;;-3.50;99.90;;;;;;5098328;28;20106;-66
2021/11/23 02:23:43;;;;;;;0.80;0.80;;;-3.50;99.90;;;;;;5111913;28;20433;-66
2021/11/23 02:55:13;;;;;;;0.90;0.90;;;-3.80;99.90;;;;;;5096849;28;20047;-65
2021/11/23 02:57:39;;;;;;;0.77;0.77;;;-3.80;99.90;;;;;;5115213;28;20092;-65
2021/11/23 03:00:13;;;;;;;0.90;0.90;;;-3.90;99.90;;;;;;5100834;28;20372;-65
2021/11/23 03:02:38;;;;;;;0.77;0.77;;;-3.90;99.90;;;;;;5115157;28;20051;-65
2021/11/23 03:05:06;;;;;;;0.88;0.88;;;-4.00;99.90;;;;;;5115397;28;20093;-66
2021/11/23 03:07:32;;;;;;;1.15;0.90;;;-4.00;99.90;;;;;;5115114;28;20046;-65
2021/11/23 03:09:58;;;;;;;0.70;0.70;;;-4.00;99.90;;;;;;5115515;28;20107;-65
2021/11/23 03:12:25;;;;;;;0.95;0.90;;;-4.00;99.90;;;;;;5114999;28;20094;-65
2021/11/23 03:14:52;;;;;;;0.80;0.80;;;-4.00;99.90;;;;;;5114967;28;20054;-65
2021/11/23 03:17:19;;;;;;;0.75;0.75;;;-3.90;99.90;;;;;;5114864;28;20035;-65
2021/11/23 03:19:46;;;;;;;0.80;0.80;;;-4.00;99.90;;;;;;5114695;28;20100;-65
2021/11/23 03:22:13;;;;;;;0.88;0.88;;;-3.90;99.90;;;;;;5114867;28;20407;-66
2021/11/23 03:24:39;;;;;;;0.88;0.88;;;-3.90;99.90;;;;;;5114854;28;20368;-66
2021/11/23 03:27:06;;;;;;;0.88;0.88;;;-3.90;99.90;;;;;;5114655;28;20036;-66
2021/11/23 03:29:32;;;;;;;0.90;0.90;;;-4.00;99.90;;;;;;5114323;28;20530;-66
2021/11/23 03:31:59;;;;;;;0.90;0.90;;;-4.00;99.90;;;;;;5114558;28;20107;-66
2021/11/23 03:34:26;;;;;;;0.88;0.88;;;-4.00;99.90;;;;;;5100270;28;20020;-66
2021/11/23 03:36:52;;;;;;;0.73;0.73;;;-4.10;99.90;;;;;;5105443;28;20032;-66
2021/11/23 03:39:17;;;;;;;1.13;1.02;;;-4.20;99.90;;;;;;5109513;28;20072;-65
2021/11/23 03:41:44;;;;;;;0.95;0.95;;;-4.20;99.90;;;;;;5114546;28;20421;-65
2021/11/23 03:44:10;;;;;;;0.82;0.82;;;-4.30;99.90;;;;;;5114896;28;20078;-65
2021/11/23 03:46:37;;;;;;;0.98;0.98;;;-4.40;99.90;;;;;;5114305;28;20023;-65
2021/11/23 03:49:02;;;;;;;1.02;1.02;;;-4.40;99.90;;;;;;5100984;28;20027;-65
2021/11/23 03:51:28;;;;;;;1.42;1.00;;;-4.40;99.90;;;;;;5114323;28;20424;-65
2021/11/23 03:53:54;;;;;;;0.70;0.70;;;-4.40;99.90;;;;;;5112994;28;20114;-66
2021/11/23 03:56:20;;;;;;;1.30;1.02;;;-4.50;99.90;;;;;;5101044;28;20036;-65
2021/11/23 03:58:45;;;;;;;0.98;0.98;;;-4.50;99.90;;;;;;5113566;28;20497;-65
2021/11/23 04:01:11;;;;;;;0.80;0.80;;;-4.50;99.90;;;;;;5114107;28;20058;-65
2021/11/23 04:03:37;;;;;;;0.88;0.88;;;-4.50;99.90;;;;;;5114162;28;20028;-66
2021/11/23 04:06:04;;;;;;;1.10;1.00;;;-4.50;99.90;;;;;;5103408;28;20032;-66
2021/11/23 04:08:31;;;;;;;0.82;0.82;;;-4.50;99.90;;;;;;5110387;28;20058;-67
2021/11/23 04:10:57;;;;;;;1.17;1.10;;;-4.50;99.90;;;;;;5114182;28;20102;-67
2021/11/23 04:13:22;;;;;;;1.08;1.08;;;-4.60;99.90;;;;;;5113781;28;20548;-67
2021/11/23 04:15:49;;;;;;;1.02;1.02;;;-4.50;99.90;;;;;;5113686;28;20022;-67
2021/11/23 04:18:15;;;;;;;0.95;0.95;;;-4.60;99.90;;;;;;5113627;28;20015;-65
2021/11/23 04:20:41;;;;;;;1.10;1.10;;;-4.60;99.90;;;;;;5113342;28;20797;-65
2021/11/23 04:23:07;;;;;;;1.73;1.05;;;-4.60;99.90;;;;;;5113476;28;20024;-65
2021/11/23 04:25:33;;;;;;;1.13;1.10;;;-4.60;99.90;;;;;;5108427;28;20145;-66
2021/11/23 04:27:59;;;;;;;1.92;0.95;;;-4.60;99.90;;;;;;5101688;28;20042;-65
2021/11/23 04:30:26;;;;;;;1.13;1.02;;;-4.60;99.90;;;;;;5113483;28;20016;-64
2021/11/23 04:32:52;;;;;;;0.85;0.85;;;-4.60;99.90;;;;;;5113525;28;20041;-67
2021/11/23 04:35:18;;;;;;;1.10;1.10;;;-4.60;99.90;;;;;;5113439;28;20069;-69
2021/11/23 04:37:44;;;;;;;1.15;1.08;;;-0.60;99.90;;;;;;5113425;28;20043;-67
2021/11/23 04:40:13;;;;;;;0.90;0.90;;;0.70;99.90;;;;;;5113192;28;20479;-66
2021/11/23 04:42:39;;;;;;;0.90;0.90;;;-0.50;99.90;;;;;;5113215;28;20035;-66
2021/11/23 04:45:07;;;;;;;0.70;0.70;;;-1.70;99.90;;;;;;5113135;28;20022;-67
2021/11/23 04:47:34;;;;;;;0.90;0.90;;;-2.40;99.90;;;;;;5112950;28;20039;-66
2021/11/23 04:50:00;;;;;;;1.02;0.82;;;-2.90;99.90;;;;;;5112923;28;20024;-66
2021/11/23 04:52:26;;;;;;;0.70;0.70;;;-3.40;99.90;;;;;;5113045;27;20386;-65
2021/11/23 04:54:52;;;;;;;0.60;0.60;;;-3.60;99.90;;;;;;5103482;28;20028;-65
2021/11/23 04:57:18;;;;;;;0.85;0.85;;;-3.80;99.90;;;;;;5105485;28;20530;-65
2021/11/23 04:59:44;;;;;;;1.08;1.02;;;-3.80;99.90;;;;;;5098359;28;20062;-67
2021/11/23 05:02:10;;;;;;;0.95;0.93;;;-3.90;99.90;;;;;;5112820;28;20024;-67
2021/11/23 05:04:36;;;;;;;0.85;0.85;;;-3.90;99.90;;;;;;5112656;28;20026;-67
2021/11/23 05:07:02;;;;;;;1.10;1.10;;;-4.10;99.90;;;;;;5106039;28;20118;-65
2021/11/23 05:09:28;;;;;;;1.15;0.90;;;-4.10;99.90;;;;;;5104255;28;20031;-65
2021/11/23 05:11:53;;;;;;;1.52;1.00;;;-4.20;99.90;;;;;;5112540;28;20026;-65
2021/11/23 05:14:19;;;;;;;0.90;0.90;;;-4.20;99.90;;;;;;5112870;28;20532;-65
2021/11/23 05:16:45;;;;;;;1.00;1.00;;;-4.20;99.90;;;;;;5098036;28;20016;-65
2021/11/23 05:19:11;;;;;;;1.33;1.02;;;-4.20;99.90;;;;;;5112688;28;20051;-65
2021/11/23 05:21:37;;;;;;;0.90;0.90;;;-4.30;99.90;;;;;;5098457;28;20436;-66
2021/11/23 05:24:03;;;;;;;0.90;0.90;;;-4.40;99.90;;;;;;5104711;28;20028;-66
2021/11/23 05:26:29;;;;;;;0.95;0.95;;;-4.50;99.90;;;;;;5104523;28;20027;-65
2021/11/23 05:28:55;;;;;;;0.82;0.82;;;-4.50;99.90;;;;;;5098031;28;20368;-64
2021/11/23 05:31:21;;;;;;;1.08;1.00;;;-4.50;99.90;;;;;;5091665;28;20531;-65
2021/11/23 05:33:47;;;;;;;0.88;0.88;;;-4.60;99.90;;;;;;5095866;28;20030;-65
2021/11/23 05:36:13;;;;;;;1.00;1.00;;;-4.60;99.90;;;;;;5095633;28;20115;-65
2021/11/23 05:38:39;;;;;;;0.90;0.90;;;-4.60;99.90;;;;;;5091768;28;20382;-66
2021/11/23 05:41:04;;;;;;;1.88;1.00;;;-4.50;99.90;;;;;;5091329;28;20432;-66
2021/11/23 05:43:31;;;;;;;1.40;1.30;;;-4.50;99.90;;;;;;5091190;28;20056;-66
2021/11/23 05:45:58;;;;;;;1.10;1.00;;;-4.40;99.90;;;;;;5091404;28;20050;-66
2021/11/23 05:48:24;;;;;;;1.05;1.05;;;-4.40;99.90;;;;;;5093634;28;20059;-66
2021/11/23 05:50:50;;;;;;;1.20;1.10;;;-4.30;99.90;;;;;;5095630;28;20415;-65
2021/11/23 05:53:16;;;;;;;2.05;1.00;;;-4.20;99.90;;;;;;5096448;28;20384;-65
2021/11/23 05:55:42;;;;;;;1.10;1.00;;;-4.20;99.90;;;;;;5095970;28;20027;-65
2021/11/23 05:58:09;;;;;;;0.90;0.90;;;-4.20;99.90;;;;;;5092656;28;20042;-65
2021/11/23 06:00:36;;;;;;;1.15;1.15;;;-4.10;99.90;;;;;;5101037;28;20382;-66
2021/11/23 06:03:02;;;;;;;1.35;1.02;;;-4.10;99.90;;;;;;5099792;28;20020;-65
2021/11/23 06:05:28;;;;;;;2.85;1.10;;;-3.70;99.90;;;;;;5111587;28;20016;-67
2021/11/23 06:07:54;;;;;;;1.33;1.00;;;-3.60;99.90;;;;;;5111554;28;20035;-65
2021/11/23 06:10:20;;;;;;;0.88;0.88;;;-3.80;99.90;;;;;;5111500;28;20153;-65
2021/11/23 06:12:47;;;;;;;1.00;1.00;;;-3.80;99.90;;;;;;5107856;28;20028;-65
2021/11/23 06:15:14;;;;;;;1.05;1.05;;;-3.90;99.90;;;;;;5098542;28;20106;-65
2021/11/23 06:17:41;;;;;;;0.93;0.93;;;-3.90;99.90;;;;;;5104513;28;20061;-65
2021/11/23 06:20:09;;;;;;;2.28;1.50;;;-3.90;99.90;;;;;;5102141;28;20020;-65
2021/11/23 06:22:35;;;;;;;2.83;1.48;;;-4.00;99.90;;;;;;5100765;28;20016;-65
2021/11/23 06:25:02;;;;;;;2.05;1.45;;;-4.00;99.90;;;;;;5100704;28;20059;-65
2021/11/23 06:27:29;;;;;;;1.23;1.13;;;-4.00;99.90;;;;;;5112912;28;20098;-65
2021/11/23 06:29:54;;;;;;;1.38;1.23;;;-4.00;99.90;;;;;;5115987;28;20030;-65
2021/11/23 06:32:20;;;;;;;1.27;1.17;;;-4.00;99.90;;;;;;5111818;28;20024;-66
2021/11/23 06:34:46;;;;;;;1.77;1.67;;;-4.00;99.90;;;;;;5114368;28;20471;-67
2021/11/23 06:37:12;;;;;;;2.60;2.33;;;-4.00;99.90;;;;;;5115616;28;20503;-65
2021/11/23 06:39:37;;;;;;;3.08;2.47;;;-4.00;99.90;;;;;;5115495;28;20724;-66
2021/11/23 06:42:03;;;;;;;2.45;2.25;;;-4.00;99.90;;;;;;5115458;28;20026;-66
2021/11/23 06:44:29;;;;;;;3.03;2.75;;;-3.10;99.90;;;;;;5107878;28;20389;-64
2021/11/23 06:46:54;;;;;;;3.33;2.92;;;-2.90;99.90;;;;;;5096500;28;20055;-64
2021/11/23 06:49:20;;;;;;;6.32;4.03;;;-3.10;99.90;;;;;;5098584;28;20099;-64
2021/11/23 06:51:46;;;;;;;6.07;3.83;;;-3.30;99.90;;;;;;5096654;28;20085;-64
2021/11/23 06:54:11;;;;;;;23.15;11.95;;;-3.50;99.90;;;;;;5102612;28;20032;-64
2021/11/23 06:56:38;;;;;;;12.80;6.97;;;-3.60;99.90;;;;;;5114792;28;20039;-64
2021/11/23 06:59:04;;;;;;;20.83;7.75;;;-3.60;99.90;;;;;;5115360;28;20030;-64
2021/11/23 07:01:30;;;;;;;11.57;5.88;;;-3.70;99.90;;;;;;5115208;28;20057;-65
2021/11/23 07:03:57;;;;;;;6.22;4.18;;;-3.70;99.90;;;;;;5114976;28;20050;-65
2021/11/23 07:06:23;;;;;;;6.07;3.60;;;-3.70;99.90;;;;;;5113545;28;20055;-65
2021/11/23 07:08:49;;;;;;;6.20;3.00;;;-3.70;99.90;;;;;;5115173;28;20051;-66
2021/11/23 07:11:14;;;;;;;3.35;2.17;;;-3.80;99.90;;;;;;5101128;28;20020;-66
2021/11/23 07:13:41;;;;;;;3.13;1.65;;;-3.90;99.90;;;;;;5096555;28;20024;-64
2021/11/23 07:16:07;;;;;;;9.80;2.58;;;-3.90;99.90;;;;;;5099207;28;20024;-64
2021/11/23 07:18:32;;;;;;;26.88;6.00;;;-4.00;99.90;;;;;;5109260;28;20739;-65
2021/11/23 07:20:58;;;;;;;22.20;4.32;;;-4.00;99.90;;;;;;5103649;28;20024;-64
2021/11/23 07:23:25;;;;;;;8.82;2.45;;;-4.00;99.90;;;;;;5105186;28;20386;-65
2021/11/23 07:25:51;;;;;;;2.35;1.52;;;-3.80;99.90;;;;;;5094399;28;20102;-66
2021/11/23 07:28:17;;;;;;;1.83;1.50;;;-3.10;99.90;;;;;;5097414;28;20652;-64
2021/11/23 07:30:44;;;;;;;1.45;1.35;;;-2.50;99.90;;;;;;5094407;28;20024;-64
2021/11/23 07:33:10;;;;;;;6.25;1.38;;;-2.80;99.90;;;;;;5094881;28;20357;-65
2021/11/23 07:35:36;;;;;;;1.10;1.00;;;-3.10;99.90;;;;;;5100146;28;20020;-64
2021/11/23 07:38:02;;;;;;;2.58;1.60;;;-3.40;99.90;;;;;;5104650;28;20020;-65
2021/11/23 07:40:28;;;;;;;2.90;1.50;;;-2.90;99.90;;;;;;5108016;28;20077;-65
2021/11/23 07:42:54;;;;;;;3.65;1.67;;;-2.60;99.90;;;;;;5105703;28;20027;-64
2021/11/23 07:45:21;;;;;;;1.60;1.25;;;-2.80;99.90;;;;;;5106392;28;20266;-65
2021/11/23 07:47:47;;;;;;;1.80;1.30;;;-2.90;99.90;;;;;;5099981;28;20378;-65
2021/11/23 07:50:13;;;;;;;1.55;1.20;;;-3.00;99.90;;;;;;5110063;28;20023;-65
2021/11/23 07:52:39;;;;;;;1.85;1.40;;;-3.10;99.90;;;;;;5103390;28;20023;-66
2021/11/23 07:55:05;;;;;;;2.45;1.20;;;-3.20;99.90;;;;;;5109988;27;20375;-67
2021/11/23 07:57:33;;;;;;;1.50;1.13;;;-3.20;99.90;;;;;;5093205;28;20048;-66
2021/11/23 07:59:59;;;;;;;1.33;1.13;;;-3.30;99.90;;;;;;5093224;28;20055;-66
2021/11/23 08:02:25;;;;;;;1.40;1.30;;;-3.30;99.90;;;;;;5104557;28;20148;-64
2021/11/23 08:04:50;;;;;;;1.88;1.20;;;-3.40;99.90;;;;;;5099451;28;20131;-65
2021/11/23 08:07:16;;;;;;;1.05;1.00;;;-3.30;99.90;;;;;;5111809;28;20427;-65
2021/11/23 08:09:43;;;;;;;2.28;1.30;;;-3.30;99.90;;;;;;5092795;28;20052;-66
2021/11/23 08:12:10;;;;;;;1.58;0.88;;;-3.30;99.90;;;;;;5100237;28;20479;-65
2021/11/23 08:14:35;;;;;;;1.25;1.13;;;-3.30;99.90;;;;;;5113595;28;20031;-66
2021/11/23 08:17:01;;;;;;;0.90;0.90;;;-3.20;99.90;;;;;;5113442;28;20028;-66
2021/11/23 08:19:27;;;;;;;1.38;1.00;;;-3.20;99.90;;;;;;5113677;28;20031;-65
2021/11/23 08:21:52;;;;;;;1.45;1.20;;;-3.20;99.90;;;;;;5113184;28;20023;-66
2021/11/23 08:24:18;;;;;;;1.05;0.95;;;-3.20;99.90;;;;;;5104779;28;20028;-66
2021/11/23 08:26:44;;;;;;;1.05;0.98;;;-3.20;99.90;;;;;;5096117;28;20538;-66
2021/11/23 08:29:09;;;;;;;1.90;1.02;;;-3.20;99.90;;;;;;5094818;28;20026;-66
2021/11/23 08:31:36;;;;;;;1.98;1.60;;;-3.20;99.90;;;;;;5094963;28;20038;-66
2021/11/23 08:34:04;;;;;;;4.20;2.72;;;-3.20;99.90;;;;;;5095642;28;20050;-66
2021/11/23 08:36:31;;;;;;;6.00;3.42;;;-3.20;99.90;;;;;;5094288;28;20020;-66
2021/11/23 08:38:56;;;;;;;3.42;2.38;;;-3.20;99.90;;;;;;5112138;28;20547;-66
2021/11/23 08:41:22;;;;;;;3.63;1.92;;;-3.20;99.90;;;;;;5113009;28;20107;-66
2021/11/23 08:43:48;;;;;;;3.40;1.92;;;-3.20;99.90;;;;;;5112729;28;20106;-66
2021/11/23 08:46:14;;;;;;;3.95;1.80;;;-3.20;99.90;;;;;;5113006;28;20035;-66
2021/11/23 08:48:39;;;;;;;2.25;1.50;;;-3.10;99.90;;;;;;5112804;28;20028;-66
2021/11/23 08:51:09;;;;;;;2.00;1.65;;;-3.20;99.90;;;;;;5112660;28;20020;-66
2021/11/23 08:53:36;;;;;;;2.08;1.50;;;-3.10;99.90;;;;;;5112898;28;20051;-66
2021/11/23 08:56:02;;;;;;;1.40;1.30;;;-3.10;99.90;;;;;;5110951;28;20046;-66
2021/11/23 08:58:27;;;;;;;1.38;1.27;;;-3.10;99.90;;;;;;5112912;28;20046;-66
2021/11/23 09:00:53;;;;;;;1.27;1.10;;;-3.10;99.90;;;;;;5112908;28;20036;-67
2021/11/23 09:03:19;;;;;;;2.47;1.13;;;-3.00;99.90;;;;;;5112792;28;20016;-69
2021/11/23 09:05:45;;;;;;;4.28;1.05;;;-2.90;99.90;;;;;;5112529;28;20357;-68
2021/11/23 09:08:11;;;;;;;1.38;1.00;;;-1.40;99.90;;;;;;5102170;27;20058;-69
2021/11/23 09:10:39;;;;;;;3.08;1.20;;;-0.20;99.90;;;;;;5105492;28;20406;-68
2021/11/23 09:13:06;;;;;;;1.70;1.40;;;0.50;99.90;;;;;;5111739;28;20562;-69
2021/11/23 09:15:32;;;;;;;1.10;1.00;;;1.00;99.90;;;;;;5105325;28;20023;-69
2021/11/23 09:18:03;;;;;;;1.33;0.90;;;1.30;99.90;;;;;;5101067;28;20052;-68
2021/11/23 09:20:34;;;;;;;;;;;1.60;99.90;;;;;;5103944;28;20016;-69
2021/11/23 09:23:05;;;;;;;2.05;0.98;;;1.80;99.90;;;;;;5111925;28;19904;-69
2021/11/23 09:25:31;;;;;;;1.33;1.10;;;2.10;99.90;;;;;;5111909;28;20038;-68
2021/11/23 09:28:00;;;;;;;1.42;1.00;;;2.20;99.90;;;;;;5110327;28;20044;-66
2021/11/23 09:30:27;;;;;;;1.73;1.00;;;2.40;99.90;;;;;;5112030;28;20019;-66
2021/11/23 09:32:53;;;;;;;1.13;0.88;;;2.50;99.90;;;;;;5111840;28;20020;-66
2021/11/23 09:35:19;;;;;;;1.20;0.90;;;2.60;99.90;;;;;;5112031;28;20153;-66
2021/11/23 09:37:45;;;;;;;0.65;0.65;;;2.70;99.90;;;;;;5111754;28;20023;-66
2021/11/23 09:40:11;;;;;;;1.80;1.05;;;2.90;99.90;;;;;;5111873;28;20542;-63
2021/11/23 09:42:37;;;;;;;1.60;1.13;;;2.70;99.90;;;;;;5111669;28;20051;-63
2021/11/23 09:45:04;;;;;;;1.85;1.10;;;2.00;99.90;;;;;;5111877;28;20048;-64
2021/11/23 09:47:30;;;;;;;3.40;1.10;;;1.40;99.90;;;;;;5111351;28;20036;-63
2021/11/23 09:50:00;;;;;;;1.52;1.10;;;0.70;99.90;;;;;;5110302;28;20491;-63
2021/11/23 09:52:27;;;;;;;2.45;1.17;;;0.30;99.90;;;;;;5106859;28;20027;-63
2021/11/23 09:54:53;;;;;;;3.25;1.38;;;0.00;99.90;;;;;;5111643;28;20024;-65
2021/11/23 09:57:19;;;;;;;1.25;1.10;;;0.10;99.90;;;;;;5110698;28;20055;-65
2021/11/23 09:59:45;;;;;;;1.98;1.08;;;-0.10;99.90;;;;;;5097189;28;20044;-65
2021/11/23 10:02:10;;;;;;;2.10;1.20;;;-0.30;99.90;;;;;;5095638;28;20055;-66
2021/11/23 10:04:37;;;;;;;2.03;1.40;;;-0.40;99.90;;;;;;5093758;28;20032;-66
2021/11/23 10:07:12;;;;;;;1.27;1.05;;;-0.60;99.90;;;;;;5092304;28;20031;-63
2021/11/23 10:09:43;;;;;;;1.75;0.95;;;-0.70;99.90;;;;;;5095041;28;20020;-63
2021/11/23 10:12:21;;;;;;;1.15;0.95;;;-0.80;99.90;;;;;;5108113;28;20068;-64
2021/11/23 10:15:05;;;;;;;2.30;1.00;;;-0.90;99.90;;;;;;5091248;28;20089;-64
2021/11/23 10:17:31;;;;;;;2.88;1.10;;;-0.90;99.90;;;;;;5095053;28;20016;-64
2021/11/23 10:19:57;;;;;;;2.40;1.23;;;-1.00;99.90;;;;;;5097735;28;20020;-64
2021/11/23 10:22:34;;;;;;;1.40;1.00;;;-1.00;99.90;;;;;;5095083;28;20107;-64
2021/11/23 10:25:06;;;;;;;1.15;0.90;;;-1.00;99.90;;;;;;5100705;28;20028;-64
2021/11/23 10:27:40;;;;;;;0.80;0.80;;;-1.10;99.90;;;;;;5093509;28;20055;-64
2021/11/23 10:30:07;;;;;;;0.57;0.57;;;-1.10;99.90;;;;;;5104822;28;20106;-64
2021/11/23 10:32:51;;;;;;;1.42;0.90;;;-1.10;99.90;;;;;;5111224;28;20012;-64
2021/11/23 10:35:20;;;;;;;3.15;0.60;;;-1.10;99.90;;;;;;5111371;28;20023;-64
2021/11/23 10:37:46;;;;;;;0.60;0.60;;;-1.10;99.90;;;;;;5111173;28;20051;-64
2021/11/23 10:40:27;;;;;;;1.42;0.90;;;-1.20;99.90;;;;;;5104272;28;20027;-63
2021/11/23 10:42:59;;;;;;;0.73;0.70;;;-1.30;99.90;;;;;;5102686;28;20016;-65
2021/11/23 10:45:32;;;;;;;1.17;0.70;;;-1.30;99.90;;;;;;5104960;28;20432;-65
2021/11/23 10:48:01;;;;;;;1.02;0.80;;;-1.30;99.90;;;;;;5101646;28;20027;-65
2021/11/23 10:50:27;;;;;;;1.08;0.70;;;-1.30;99.90;;;;;;5096750;28;20552;-64
2021/11/23 10:52:53;;;;;;;0.70;0.70;;;-1.30;99.90;;;;;;5099644;28;20115;-64
2021/11/23 10:55:26;;;;;;;1.70;0.70;;;-1.40;99.90;;;;;;5111332;28;20095;-65
2021/11/23 10:57:55;;;;;;;0.60;0.60;;;-1.40;99.90;;;;;;5104360;28;20044;-65
2021/11/23 11:00:22;;;;;;;1.40;0.70;;;-1.40;99.90;;;;;;5111353;28;20026;-65
2021/11/23 11:02:50;;;;;;;2.00;0.93;;;-1.40;99.90;;;;;;5111376;28;20027;-65
2021/11/23 11:05:16;;;;;;;1.55;0.90;;;-1.40;99.90;;;;;;5101463;28;20098;-65
2021/11/23 11:07:46;;;;;;;0.88;0.80;;;-1.30;99.90;;;;;;5111084;28;20035;-65
2021/11/23 11:10:12;;;;;;;2.10;0.88;;;-1.30;99.90;;;;;;5113869;28;20394;-65
2021/11/23 11:12:38;;;;;;;0.85;0.75;;;-1.30;99.90;;;;;;5114817;28;20074;-65
2021/11/23 11:15:08;;;;;;;0.88;0.85;;;-1.30;99.90;;;;;;5114596;28;20023;-65
2021/11/23 11:17:38;;;;;;;1.20;0.80;;;-1.20;99.90;;;;;;5114951;28;20030;-65
2021/11/23 11:20:05;;;;;;;5.97;2.00;;;-1.20;99.90;;;;;;5102422;28;20031;-65
2021/11/23 11:22:32;;;;;;;2.58;1.30;;;-1.20;99.90;;;;;;5098123;28;20024;-65
2021/11/23 11:25:14;;;;;;;0.93;0.82;;;-1.10;99.90;;;;;;5101821;28;20024;-65
2021/11/23 11:27:46;;;;;;;1.38;0.80;;;-1.00;99.90;;;;;;5098083;28;20063;-64
2021/11/23 11:30:34;;;;;;;3.55;0.90;;;-1.00;99.90;;;;;;5101569;28;20019;-63
2021/11/23 11:33:09;;;;;;;2.00;0.80;;;-1.00;99.90;;;;;;5108383;28;20072;-63
2021/11/23 11:35:49;;;;;;;5.15;0.88;;;-0.90;99.90;;;;;;5114334;28;20020;-63
2021/11/23 11:38:29;;;;;;;3.13;1.17;;;-0.80;99.90;;;;;;5114304;28;20095;-64
2021/11/23 11:41:07;;;;;;;2.25;1.20;;;-0.80;99.90;;;;;;5114213;28;20726;-64
2021/11/23 11:43:38;;;;;;;3.63;1.10;;;-0.80;99.90;;;;;;5114197;28;20059;-64
2021/11/23 11:46:06;;;;;;;2.58;0.90;;;-0.80;99.90;;;;;;5104135;28;20110;-64
2021/11/23 11:48:36;;;;;;;2.88;0.93;;;-0.70;99.90;;;;;;5103747;28;20036;-63
2021/11/23 11:51:04;;;;;;;1.75;0.98;;;-0.70;99.90;;;;;;5114253;28;20023;-64
2021/11/23 11:53:42;;;;;;;2.22;0.93;;;-0.60;99.90;;;;;;5114000;28;20371;-63
2021/11/23 11:56:09;;;;;;;3.92;1.10;;;-0.50;99.90;;;;;;5109559;28;20119;-64
2021/11/23 11:58:57;;;;;;;1.55;1.13;;;-0.50;99.90;;;;;;5113104;28;20016;-64
2021/11/23 12:01:26;;;;;;;2.17;1.08;;;-0.40;99.90;;;;;;5114089;28;20024;-66
2021/11/23 12:04:03;;;;;;;3.83;1.10;;;-0.40;99.90;;;;;;5105502;28;20024;-67
2021/11/23 12:06:59;;;;;;;3.80;0.98;;;-0.40;99.90;;;;;;5093790;28;20031;-66
2021/11/23 12:09:36;;;;;;;3.60;0.93;;;-0.40;99.90;;;;;;5092262;28;20035;-66
2021/11/23 12:12:11;;;;;;;1.20;0.98;;;-0.30;99.90;;;;;;5113239;28;20030;-67
2021/11/23 12:14:52;;;;;;;2.28;1.38;;;-0.30;99.90;;;;;;5114139;28;20023;-68
2021/11/23 12:17:32;;;;;;;3.58;1.52;;;-0.30;99.90;;;;;;5104608;28;20024;-67
2021/11/23 12:20:08;;;;;;;3.30;1.05;;;-0.20;99.90;;;;;;5111915;28;20024;-68
2021/11/23 12:22:42;;;;;;;2.60;0.82;;;-0.20;99.90;;;;;;5102177;28;20364;-69
2021/11/23 12:25:18;;;;;;;3.45;1.15;;;-0.20;99.90;;;;;;5111440;28;20026;-67
2021/11/23 12:27:46;;;;;;;3.03;0.90;;;-0.10;99.90;;;;;;5102567;28;20027;-67
2021/11/23 12:30:14;;;;;;;2.13;1.13;;;-0.10;99.90;;;;;;5112160;28;20034;-67
2021/11/23 12:32:42;;;;;;;5.97;2.17;;;0.10;99.90;;;;;;5092899;28;20016;-67
2021/11/23 12:35:09;;;;;;;7.40;4.20;;;0.10;99.90;;;;;;5091806;28;20043;-68
2021/11/23 12:37:36;;;;;;;11.05;5.45;;;0.10;99.90;;;;;;5098886;28;20483;-68
2021/11/23 12:40:20;;;;;;;9.73;4.45;;;0.00;99.90;;;;;;5111772;28;20110;-68
2021/11/23 12:42:55;;;;;;;5.68;3.15;;;0.00;99.90;;;;;;5092750;28;20019;-67
2021/11/23 12:45:26;;;;;;;6.55;4.00;;;0.30;99.90;;;;;;5106514;28;20020;-68
2021/11/23 12:47:52;;;;;;;7.47;3.40;;;0.80;99.90;;;;;;5099487;28;20031;-68
2021/11/23 12:50:18;;;;;;;8.38;3.10;;;0.80;99.90;;;;;;5112562;27;20016;-68
2021/11/23 12:52:45;;;;;;;10.80;3.50;;;0.60;99.90;;;;;;5112383;28;20038;-68
2021/11/23 12:55:15;;;;;;;11.02;4.28;;;0.50;99.90;;;;;;5101642;28;20047;-67
2021/11/23 12:57:50;;;;;;;9.93;4.00;;;0.50;99.90;;;;;;5109754;28;20051;-68
2021/11/23 13:00:18;;;;;;;6.63;4.10;;;0.40;99.90;;;;;;5099458;28;20032;-67
2021/11/23 13:02:47;;;;;;;8.30;3.97;;;0.40;99.90;;;;;;5112704;28;20032;-67
2021/11/23 13:05:19;;;;;;;11.25;4.35;;;0.30;99.90;;;;;;5092647;27;20051;-67
2021/11/23 13:07:52;;;;;;;5.05;2.90;;;0.30;99.90;;;;;;5090803;28;20032;-67
2021/11/23 13:10:23;;;;;;;5.03;2.30;;;0.30;99.90;;;;;;5097474;28;20110;-67
2021/11/23 13:12:52;;;;;;;4.75;1.92;;;0.30;99.90;;;;;;5112890;28;20038;-67
2021/11/23 13:15:19;;;;;;;6.07;2.40;;;0.30;99.90;;;;;;5112460;28;20030;-67
2021/11/23 13:17:55;;;;;;;4.00;1.67;;;0.30;99.90;;;;;;5112493;28;20470;-67